sensor_id;sensor_type;location;lat;lon;timestamp;P1;durP1;ratioP1;P2;durP2;ratioP2
53064;SDS011;38948;48.376;-4.312;2022-08-25T00:00:21;1.58;;;1.00;;
53064;SDS011;38948;48.376;-4.312;2022-08-25T00:02:47;4.03;;;1.10;;
53064;SDS011;38948;48.376;-4.312;2022-08-25T00:05:13;2.17;;;1.02;;
53064;SDS011;38948;48.376;-4.312;2022-08-25T00:07:39;4.18;;;1.25;;
53064;SDS011;38948;48.376;-4.312;2022-08-25T00:10:05;3.22;;;1.50;;
53064;SDS011;38948;48.376;-4.312;2022-08-25T00:12:32;6.32;;;1.92;;
53064;SDS011;38948;48.376;-4.312;2022-08-25T00:14:58;3.15;;;1.33;;
53064;SDS011;38948;48.376;-4.312;2022-08-25T00:17:24;2.55;;;1.52;;
53064;SDS011;38948;48.376;-4.312;2022-08-25T00:19:51;3.20;;;1.80;;
53064;SDS011;38948;48.376;-4.312;2022-08-25T00:22:17;3.42;;;1.88;;
53064;SDS011;38948;48.376;-4.312;2022-08-25T00:24:43;3.20;;;1.80;;
53064;SDS011;38948;48.376;-4.312;2022-08-25T00:27:09;3.00;;;1.95;;
53064;SDS011;38948;48.376;-4.312;2022-08-25T00:29:36;3.70;;;2.00;;
53064;SDS011;38948;48.376;-4.312;2022-08-25T00:32:03;6.60;;;2.40;;
53064;SDS011;38948;48.376;-4.312;2022-08-25T00:34:34;4.70;;;2.40;;
53064;SDS011;38948;48.376;-4.312;2022-08-25T00:37:01;4.95;;;2.67;;
53064;SDS011;38948;48.376;-4.312;2022-08-25T00:39:27;4.82;;;2.63;;
53064;SDS011;38948;48.376;-4.312;2022-08-25T00:41:54;4.45;;;2.88;;
53064;SDS011;38948;48.376;-4.312;2022-08-25T00:44:22;6.07;;;3.17;;
53064;SDS011;38948;48.376;-4.312;2022-08-25T00:46:49;4.75;;;2.80;;
53064;SDS011;38948;48.376;-4.312;2022-08-25T00:49:16;5.18;;;2.90;;
53064;SDS011;38948;48.376;-4.312;2022-08-25T00:51:54;5.32;;;2.90;;
53064;SDS011;38948;48.376;-4.312;2022-08-25T00:54:23;3.75;;;2.05;;
53064;SDS011;38948;48.376;-4.312;2022-08-25T00:56:51;3.95;;;2.00;;
53064;SDS011;38948;48.376;-4.312;2022-08-25T00:59:19;3.78;;;1.98;;
53064;SDS011;38948;48.376;-4.312;2022-08-25T01:01:45;5.05;;;2.10;;
53064;SDS011;38948;48.376;-4.312;2022-08-25T01:04:12;3.58;;;2.10;;
53064;SDS011;38948;48.376;-4.312;2022-08-25T01:06:38;3.85;;;2.20;;
53064;SDS011;38948;48.376;-4.312;2022-08-25T01:09:05;5.32;;;2.60;;
53064;SDS011;38948;48.376;-4.312;2022-08-25T01:11:33;5.43;;;3.03;;
53064;SDS011;38948;48.376;-4.312;2022-08-25T01:13:59;5.43;;;3.08;;
53064;SDS011;38948;48.376;-4.312;2022-08-25T01:16:30;5.20;;;2.72;;
53064;SDS011;38948;48.376;-4.312;2022-08-25T01:18:56;4.93;;;2.60;;
53064;SDS011;38948;48.376;-4.312;2022-08-25T01:21:25;5.25;;;2.85;;
53064;SDS011;38948;48.376;-4.312;2022-08-25T01:23:52;4.22;;;2.22;;
53064;SDS011;38948;48.376;-4.312;2022-08-25T01:26:26;4.57;;;2.60;;
53064;SDS011;38948;48.376;-4.312;2022-08-25T01:28:53;5.15;;;2.67;;
53064;SDS011;38948;48.376;-4.312;2022-08-25T01:31:38;6.53;;;2.30;;
53064;SDS011;38948;48.376;-4.312;2022-08-25T01:34:05;3.30;;;1.92;;
53064;SDS011;38948;48.376;-4.312;2022-08-25T01:36:32;5.40;;;2.38;;
53064;SDS011;38948;48.376;-4.312;2022-08-25T01:38:59;6.07;;;2.67;;
53064;SDS011;38948;48.376;-4.312;2022-08-25T01:43:54;3.78;;;1.83;;
53064;SDS011;38948;48.376;-4.312;2022-08-25T01:46:20;3.95;;;2.30;;
53064;SDS011;38948;48.376;-4.312;2022-08-25T01:48:46;3.63;;;2.13;;
53064;SDS011;38948;48.376;-4.312;2022-08-25T01:51:16;5.05;;;2.25;;
53064;SDS011;38948;48.376;-4.312;2022-08-25T01:53:43;3.38;;;2.22;;
53064;SDS011;38948;48.376;-4.312;2022-08-25T01:56:10;6.78;;;2.60;;
53064;SDS011;38948;48.376;-4.312;2022-08-25T01:58:38;4.75;;;2.50;;
53064;SDS011;38948;48.376;-4.312;2022-08-25T02:01:06;5.07;;;2.33;;
53064;SDS011;38948;48.376;-4.312;2022-08-25T02:03:35;3.47;;;1.83;;
53064;SDS011;38948;48.376;-4.312;2022-08-25T02:06:02;5.15;;;2.35;;
53064;SDS011;38948;48.376;-4.312;2022-08-25T02:08:28;2.60;;;1.80;;
53064;SDS011;38948;48.376;-4.312;2022-08-25T02:10:54;2.15;;;1.45;;
53064;SDS011;38948;48.376;-4.312;2022-08-25T02:13:20;3.42;;;1.80;;
53064;SDS011;38948;48.376;-4.312;2022-08-25T02:15:48;2.53;;;1.20;;
53064;SDS011;38948;48.376;-4.312;2022-08-25T02:18:15;2.13;;;1.30;;
53064;SDS011;38948;48.376;-4.312;2022-08-25T02:20:41;2.63;;;1.70;;
53064;SDS011;38948;48.376;-4.312;2022-08-25T02:23:08;2.30;;;1.52;;
53064;SDS011;38948;48.376;-4.312;2022-08-25T02:25:35;2.80;;;1.27;;
53064;SDS011;38948;48.376;-4.312;2022-08-25T02:28:02;1.67;;;1.15;;
53064;SDS011;38948;48.376;-4.312;2022-08-25T02:30:28;2.05;;;1.17;;
53064;SDS011;38948;48.376;-4.312;2022-08-25T02:32:54;3.03;;;1.10;;
53064;SDS011;38948;48.376;-4.312;2022-08-25T02:35:20;1.73;;;1.13;;
53064;SDS011;38948;48.376;-4.312;2022-08-25T02:37:46;1.25;;;0.90;;
53064;SDS011;38948;48.376;-4.312;2022-08-25T02:40:12;1.85;;;0.98;;
53064;SDS011;38948;48.376;-4.312;2022-08-25T02:42:38;1.45;;;1.00;;
53064;SDS011;38948;48.376;-4.312;2022-08-25T02:45:05;2.53;;;1.08;;
53064;SDS011;38948;48.376;-4.312;2022-08-25T02:47:31;3.08;;;1.08;;
53064;SDS011;38948;48.376;-4.312;2022-08-25T02:49:57;1.20;;;0.77;;
53064;SDS011;38948;48.376;-4.312;2022-08-25T02:52:24;0.98;;;0.68;;
53064;SDS011;38948;48.376;-4.312;2022-08-25T02:54:50;1.00;;;0.77;;
53064;SDS011;38948;48.376;-4.312;2022-08-25T02:57:16;1.25;;;0.65;;
53064;SDS011;38948;48.376;-4.312;2022-08-25T02:59:42;0.93;;;0.70;;
53064;SDS011;38948;48.376;-4.312;2022-08-25T03:02:12;0.80;;;0.68;;
53064;SDS011;38948;48.376;-4.312;2022-08-25T03:04:38;1.48;;;0.90;;
53064;SDS011;38948;48.376;-4.312;2022-08-25T03:07:04;0.70;;;0.60;;
53064;SDS011;38948;48.376;-4.312;2022-08-25T03:09:30;1.20;;;0.73;;
53064;SDS011;38948;48.376;-4.312;2022-08-25T03:11:56;0.55;;;0.47;;
53064;SDS011;38948;48.376;-4.312;2022-08-25T03:14:22;1.65;;;0.82;;
53064;SDS011;38948;48.376;-4.312;2022-08-25T03:16:49;2.08;;;0.75;;
53064;SDS011;38948;48.376;-4.312;2022-08-25T03:19:15;0.63;;;0.60;;
53064;SDS011;38948;48.376;-4.312;2022-08-25T03:21:42;0.75;;;0.70;;
53064;SDS011;38948;48.376;-4.312;2022-08-25T03:24:09;0.73;;;0.60;;
53064;SDS011;38948;48.376;-4.312;2022-08-25T03:26:36;1.20;;;0.80;;
53064;SDS011;38948;48.376;-4.312;2022-08-25T03:29:17;0.82;;;0.70;;
53064;SDS011;38948;48.376;-4.312;2022-08-25T03:31:44;1.05;;;0.70;;
53064;SDS011;38948;48.376;-4.312;2022-08-25T03:34:11;0.65;;;0.55;;
53064;SDS011;38948;48.376;-4.312;2022-08-25T03:36:37;1.83;;;0.85;;
53064;SDS011;38948;48.376;-4.312;2022-08-25T03:39:03;1.02;;;0.70;;
53064;SDS011;38948;48.376;-4.312;2022-08-25T03:41:30;1.38;;;0.63;;
53064;SDS011;38948;48.376;-4.312;2022-08-25T03:43:57;1.40;;;0.90;;
53064;SDS011;38948;48.376;-4.312;2022-08-25T03:46:25;2.60;;;1.50;;
53064;SDS011;38948;48.376;-4.312;2022-08-25T03:48:51;1.70;;;0.93;;
53064;SDS011;38948;48.376;-4.312;2022-08-25T03:51:19;2.15;;;0.70;;
53064;SDS011;38948;48.376;-4.312;2022-08-25T03:53:45;1.08;;;0.63;;
53064;SDS011;38948;48.376;-4.312;2022-08-25T03:56:11;1.90;;;0.88;;
53064;SDS011;38948;48.376;-4.312;2022-08-25T03:58:37;1.90;;;0.85;;
53064;SDS011;38948;48.376;-4.312;2022-08-25T04:01:03;0.70;;;0.70;;
53064;SDS011;38948;48.376;-4.312;2022-08-25T04:03:29;1.13;;;0.80;;
53064;SDS011;38948;48.376;-4.312;2022-08-25T04:05:59;1.75;;;0.85;;
53064;SDS011;38948;48.376;-4.312;2022-08-25T04:08:25;4.03;;;0.85;;
53064;SDS011;38948;48.376;-4.312;2022-08-25T04:10:51;2.65;;;0.82;;
53064;SDS011;38948;48.376;-4.312;2022-08-25T04:13:18;4.30;;;0.90;;
53064;SDS011;38948;48.376;-4.312;2022-08-25T04:15:44;1.55;;;0.77;;
53064;SDS011;38948;48.376;-4.312;2022-08-25T04:18:10;0.85;;;0.65;;
53064;SDS011;38948;48.376;-4.312;2022-08-25T04:20:37;2.85;;;0.80;;
53064;SDS011;38948;48.376;-4.312;2022-08-25T04:23:03;1.35;;;0.70;;
53064;SDS011;38948;48.376;-4.312;2022-08-25T04:25:29;2.55;;;0.82;;
53064;SDS011;38948;48.376;-4.312;2022-08-25T04:27:55;3.42;;;1.00;;
53064;SDS011;38948;48.376;-4.312;2022-08-25T04:30:21;1.83;;;0.70;;
53064;SDS011;38948;48.376;-4.312;2022-08-25T04:32:48;2.20;;;0.80;;
53064;SDS011;38948;48.376;-4.312;2022-08-25T04:35:14;1.77;;;0.88;;
53064;SDS011;38948;48.376;-4.312;2022-08-25T04:37:40;2.33;;;0.68;;
53064;SDS011;38948;48.376;-4.312;2022-08-25T04:40:07;3.03;;;0.82;;
53064;SDS011;38948;48.376;-4.312;2022-08-25T04:42:34;2.85;;;1.10;;
53064;SDS011;38948;48.376;-4.312;2022-08-25T04:45:00;1.52;;;0.75;;
53064;SDS011;38948;48.376;-4.312;2022-08-25T04:47:28;1.33;;;0.63;;
53064;SDS011;38948;48.376;-4.312;2022-08-25T04:49:54;3.03;;;0.85;;
53064;SDS011;38948;48.376;-4.312;2022-08-25T04:52:20;2.17;;;0.80;;
53064;SDS011;38948;48.376;-4.312;2022-08-25T04:54:46;3.45;;;1.00;;
53064;SDS011;38948;48.376;-4.312;2022-08-25T04:57:12;3.47;;;0.75;;
53064;SDS011;38948;48.376;-4.312;2022-08-25T04:59:38;4.00;;;0.77;;
53064;SDS011;38948;48.376;-4.312;2022-08-25T05:02:05;0.93;;;0.68;;
53064;SDS011;38948;48.376;-4.312;2022-08-25T05:04:31;2.17;;;0.70;;
53064;SDS011;38948;48.376;-4.312;2022-08-25T05:06:58;2.95;;;0.70;;
53064;SDS011;38948;48.376;-4.312;2022-08-25T05:09:25;2.08;;;1.02;;
53064;SDS011;38948;48.376;-4.312;2022-08-25T05:11:51;2.45;;;0.77;;
53064;SDS011;38948;48.376;-4.312;2022-08-25T05:14:17;1.65;;;0.68;;
53064;SDS011;38948;48.376;-4.312;2022-08-25T05:16:46;2.78;;;1.00;;
53064;SDS011;38948;48.376;-4.312;2022-08-25T05:19:12;3.60;;;1.23;;
53064;SDS011;38948;48.376;-4.312;2022-08-25T05:21:38;0.93;;;0.65;;
53064;SDS011;38948;48.376;-4.312;2022-08-25T05:24:05;3.65;;;0.88;;
53064;SDS011;38948;48.376;-4.312;2022-08-25T05:26:32;4.03;;;0.85;;
53064;SDS011;38948;48.376;-4.312;2022-08-25T05:28:59;1.27;;;0.60;;
53064;SDS011;38948;48.376;-4.312;2022-08-25T05:31:25;1.30;;;0.50;;
53064;SDS011;38948;48.376;-4.312;2022-08-25T05:33:52;2.78;;;0.90;;
53064;SDS011;38948;48.376;-4.312;2022-08-25T05:36:19;1.25;;;0.82;;
53064;SDS011;38948;48.376;-4.312;2022-08-25T05:38:45;1.65;;;1.10;;
53064;SDS011;38948;48.376;-4.312;2022-08-25T05:41:14;3.08;;;1.00;;
53064;SDS011;38948;48.376;-4.312;2022-08-25T05:43:41;1.38;;;0.70;;
53064;SDS011;38948;48.376;-4.312;2022-08-25T05:46:07;1.77;;;0.93;;
53064;SDS011;38948;48.376;-4.312;2022-08-25T05:48:34;3.13;;;0.77;;
53064;SDS011;38948;48.376;-4.312;2022-08-25T05:51:02;1.02;;;0.65;;
53064;SDS011;38948;48.376;-4.312;2022-08-25T05:53:28;1.08;;;0.47;;
53064;SDS011;38948;48.376;-4.312;2022-08-25T05:55:55;1.45;;;0.77;;
53064;SDS011;38948;48.376;-4.312;2022-08-25T05:58:22;1.50;;;0.68;;
53064;SDS011;38948;48.376;-4.312;2022-08-25T06:00:49;1.08;;;0.52;;
53064;SDS011;38948;48.376;-4.312;2022-08-25T06:03:15;1.58;;;0.82;;
53064;SDS011;38948;48.376;-4.312;2022-08-25T06:05:41;1.92;;;0.70;;
53064;SDS011;38948;48.376;-4.312;2022-08-25T06:08:08;1.90;;;0.68;;
53064;SDS011;38948;48.376;-4.312;2022-08-25T06:10:34;3.17;;;1.08;;
53064;SDS011;38948;48.376;-4.312;2022-08-25T06:13:00;3.92;;;0.68;;
53064;SDS011;38948;48.376;-4.312;2022-08-25T06:15:26;3.58;;;1.50;;
53064;SDS011;38948;48.376;-4.312;2022-08-25T06:17:53;1.65;;;0.60;;
53064;SDS011;38948;48.376;-4.312;2022-08-25T06:20:23;1.83;;;0.75;;
53064;SDS011;38948;48.376;-4.312;2022-08-25T06:22:50;4.10;;;0.80;;
53064;SDS011;38948;48.376;-4.312;2022-08-25T06:25:17;5.30;;;1.35;;
53064;SDS011;38948;48.376;-4.312;2022-08-25T06:27:44;1.73;;;0.50;;
53064;SDS011;38948;48.376;-4.312;2022-08-25T06:30:11;2.67;;;0.63;;
53064;SDS011;38948;48.376;-4.312;2022-08-25T06:32:39;1.88;;;0.60;;
53064;SDS011;38948;48.376;-4.312;2022-08-25T06:35:06;1.67;;;0.60;;
53064;SDS011;38948;48.376;-4.312;2022-08-25T06:37:33;2.95;;;0.75;;
53064;SDS011;38948;48.376;-4.312;2022-08-25T06:39:59;3.70;;;1.08;;
53064;SDS011;38948;48.376;-4.312;2022-08-25T06:42:26;3.97;;;0.60;;
53064;SDS011;38948;48.376;-4.312;2022-08-25T06:44:52;2.55;;;0.60;;
53064;SDS011;38948;48.376;-4.312;2022-08-25T06:47:18;2.47;;;0.50;;
53064;SDS011;38948;48.376;-4.312;2022-08-25T06:49:44;3.38;;;0.80;;
53064;SDS011;38948;48.376;-4.312;2022-08-25T06:52:10;3.22;;;0.80;;
53064;SDS011;38948;48.376;-4.312;2022-08-25T06:54:37;3.00;;;0.60;;
53064;SDS011;38948;48.376;-4.312;2022-08-25T06:57:03;1.58;;;0.68;;
53064;SDS011;38948;48.376;-4.312;2022-08-25T06:59:31;2.03;;;0.80;;
53064;SDS011;38948;48.376;-4.312;2022-08-25T07:01:57;2.55;;;0.57;;
53064;SDS011;38948;48.376;-4.312;2022-08-25T07:04:23;3.47;;;0.93;;
53064;SDS011;38948;48.376;-4.312;2022-08-25T07:06:49;4.65;;;0.52;;
53064;SDS011;38948;48.376;-4.312;2022-08-25T07:09:16;2.10;;;0.90;;
53064;SDS011;38948;48.376;-4.312;2022-08-25T07:11:42;2.20;;;0.80;;
53064;SDS011;38948;48.376;-4.312;2022-08-25T07:14:10;2.22;;;0.70;;
53064;SDS011;38948;48.376;-4.312;2022-08-25T07:16:36;3.15;;;0.65;;
53064;SDS011;38948;48.376;-4.312;2022-08-25T07:19:03;2.90;;;0.82;;
53064;SDS011;38948;48.376;-4.312;2022-08-25T07:21:31;4.63;;;0.90;;
53064;SDS011;38948;48.376;-4.312;2022-08-25T07:23:58;3.35;;;0.70;;
53064;SDS011;38948;48.376;-4.312;2022-08-25T07:26:26;6.95;;;0.90;;
53064;SDS011;38948;48.376;-4.312;2022-08-25T07:28:53;4.28;;;0.70;;
53064;SDS011;38948;48.376;-4.312;2022-08-25T07:31:19;3.60;;;0.70;;
53064;SDS011;38948;48.376;-4.312;2022-08-25T07:33:45;2.45;;;0.55;;
53064;SDS011;38948;48.376;-4.312;2022-08-25T07:36:30;3.42;;;0.80;;
53064;SDS011;38948;48.376;-4.312;2022-08-25T07:38:56;3.22;;;1.35;;
53064;SDS011;38948;48.376;-4.312;2022-08-25T07:41:23;2.17;;;0.50;;
53064;SDS011;38948;48.376;-4.312;2022-08-25T07:43:50;2.20;;;0.43;;
53064;SDS011;38948;48.376;-4.312;2022-08-25T07:46:16;2.90;;;0.70;;
53064;SDS011;38948;48.376;-4.312;2022-08-25T07:48:42;4.68;;;0.73;;
53064;SDS011;38948;48.376;-4.312;2022-08-25T07:51:09;4.95;;;0.70;;
53064;SDS011;38948;48.376;-4.312;2022-08-25T07:53:35;3.05;;;0.60;;
53064;SDS011;38948;48.376;-4.312;2022-08-25T07:56:01;0.82;;;0.40;;
53064;SDS011;38948;48.376;-4.312;2022-08-25T07:58:28;4.18;;;0.65;;
53064;SDS011;38948;48.376;-4.312;2022-08-25T08:00:54;2.03;;;0.52;;
53064;SDS011;38948;48.376;-4.312;2022-08-25T08:03:20;2.85;;;0.45;;
53064;SDS011;38948;48.376;-4.312;2022-08-25T08:05:46;3.28;;;0.90;;
53064;SDS011;38948;48.376;-4.312;2022-08-25T08:08:12;2.47;;;0.50;;
53064;SDS011;38948;48.376;-4.312;2022-08-25T08:10:39;5.20;;;0.70;;
53064;SDS011;38948;48.376;-4.312;2022-08-25T08:13:05;1.88;;;0.52;;
53064;SDS011;38948;48.376;-4.312;2022-08-25T08:15:31;2.10;;;0.55;;
53064;SDS011;38948;48.376;-4.312;2022-08-25T08:17:58;2.10;;;0.73;;
53064;SDS011;38948;48.376;-4.312;2022-08-25T08:20:24;1.98;;;0.30;;
53064;SDS011;38948;48.376;-4.312;2022-08-25T08:22:50;3.38;;;0.45;;
53064;SDS011;38948;48.376;-4.312;2022-08-25T08:25:16;3.35;;;0.40;;
53064;SDS011;38948;48.376;-4.312;2022-08-25T08:27:42;4.95;;;0.73;;
53064;SDS011;38948;48.376;-4.312;2022-08-25T08:30:10;3.65;;;0.45;;
53064;SDS011;38948;48.376;-4.312;2022-08-25T08:32:36;0.90;;;0.40;;
53064;SDS011;38948;48.376;-4.312;2022-08-25T08:35:03;2.83;;;0.50;;
53064;SDS011;38948;48.376;-4.312;2022-08-25T08:37:29;3.17;;;0.75;;
53064;SDS011;38948;48.376;-4.312;2022-08-25T08:39:56;0.70;;;0.30;;
53064;SDS011;38948;48.376;-4.312;2022-08-25T08:52:18;3.70;;;0.55;;
53064;SDS011;38948;48.376;-4.312;2022-08-25T08:54:49;1.65;;;0.30;;
53064;SDS011;38948;48.376;-4.312;2022-08-25T08:57:18;1.05;;;0.95;;
53064;SDS011;38948;48.376;-4.312;2022-08-25T08:59:54;1.25;;;0.55;;
53064;SDS011;38948;48.376;-4.312;2022-08-25T09:04:54;2.47;;;0.73;;
53064;SDS011;38948;48.376;-4.312;2022-08-25T09:07:23;4.85;;;0.63;;
53064;SDS011;38948;48.376;-4.312;2022-08-25T09:09:50;2.90;;;0.65;;
53064;SDS011;38948;48.376;-4.312;2022-08-25T09:25:36;2.22;;;0.35;;
53064;SDS011;38948;48.376;-4.312;2022-08-25T09:28:11;4.38;;;0.80;;
53064;SDS011;38948;48.376;-4.312;2022-08-25T09:30:44;2.28;;;0.38;;
53064;SDS011;38948;48.376;-4.312;2022-08-25T09:33:17;1.80;;;0.43;;
53064;SDS011;38948;48.376;-4.312;2022-08-25T09:35:44;2.38;;;0.55;;
53064;SDS011;38948;48.376;-4.312;2022-08-25T09:38:11;1.90;;;0.50;;
53064;SDS011;38948;48.376;-4.312;2022-08-25T09:40:59;1.38;;;0.40;;
53064;SDS011;38948;48.376;-4.312;2022-08-25T09:43:34;1.75;;;0.50;;
53064;SDS011;38948;48.376;-4.312;2022-08-25T09:48:31;1.42;;;0.45;;
53064;SDS011;38948;48.376;-4.312;2022-08-25T09:53:44;2.45;;;0.57;;
53064;SDS011;38948;48.376;-4.312;2022-08-25T09:56:13;4.80;;;0.75;;
53064;SDS011;38948;48.376;-4.312;2022-08-25T09:58:39;1.52;;;0.38;;
53064;SDS011;38948;48.376;-4.312;2022-08-25T10:01:10;2.88;;;0.52;;
53064;SDS011;38948;48.376;-4.312;2022-08-25T10:03:43;0.98;;;0.30;;
53064;SDS011;38948;48.376;-4.312;2022-08-25T10:06:17;2.08;;;0.38;;
53064;SDS011;38948;48.376;-4.312;2022-08-25T10:11:27;2.85;;;0.30;;
53064;SDS011;38948;48.376;-4.312;2022-08-25T10:19:24;2.20;;;0.70;;
53064;SDS011;38948;48.376;-4.312;2022-08-25T10:22:25;5.05;;;0.73;;
53064;SDS011;38948;48.376;-4.312;2022-08-25T10:24:43;2.47;;;0.50;;
53064;SDS011;38948;48.376;-4.312;2022-08-25T10:30:05;5.40;;;0.93;;
53064;SDS011;38948;48.376;-4.312;2022-08-25T10:40:27;2.85;;;0.70;;
53064;SDS011;38948;48.376;-4.312;2022-08-25T10:45:24;3.65;;;0.50;;
53064;SDS011;38948;48.376;-4.312;2022-08-25T10:50:42;2.17;;;0.57;;
53064;SDS011;38948;48.376;-4.312;2022-08-25T10:55:42;1.08;;;0.47;;
53064;SDS011;38948;48.376;-4.312;2022-08-25T11:00:57;1.48;;;0.50;;
53064;SDS011;38948;48.376;-4.312;2022-08-25T11:03:35;1.77;;;0.50;;
53064;SDS011;38948;48.376;-4.312;2022-08-25T11:06:04;2.45;;;0.60;;
53064;SDS011;38948;48.376;-4.312;2022-08-25T11:08:42;1.45;;;0.55;;
53064;SDS011;38948;48.376;-4.312;2022-08-25T11:16:20;3.00;;;0.55;;
53064;SDS011;38948;48.376;-4.312;2022-08-25T11:18:54;2.42;;;0.50;;
53064;SDS011;38948;48.376;-4.312;2022-08-25T11:26:45;2.10;;;0.40;;
53064;SDS011;38948;48.376;-4.312;2022-08-25T11:29:16;2.78;;;0.80;;
53064;SDS011;38948;48.376;-4.312;2022-08-25T11:31:43;1.77;;;0.60;;
53064;SDS011;38948;48.376;-4.312;2022-08-25T11:34:10;2.17;;;0.45;;
53064;SDS011;38948;48.376;-4.312;2022-08-25T11:36:41;0.70;;;0.30;;
53064;SDS011;38948;48.376;-4.312;2022-08-25T11:41:47;4.85;;;0.57;;
53064;SDS011;38948;48.376;-4.312;2022-08-25T11:52:09;1.15;;;0.43;;
53064;SDS011;38948;48.376;-4.312;2022-08-25T11:54:52;2.20;;;0.52;;
53064;SDS011;38948;48.376;-4.312;2022-08-25T11:57:20;2.53;;;0.50;;
53064;SDS011;38948;48.376;-4.312;2022-08-25T12:04:57;2.22;;;0.45;;
53064;SDS011;38948;48.376;-4.312;2022-08-25T12:07:24;2.05;;;0.43;;
53064;SDS011;38948;48.376;-4.312;2022-08-25T12:12:28;1.70;;;0.35;;
53064;SDS011;38948;48.376;-4.312;2022-08-25T12:14:55;1.52;;;0.25;;
53064;SDS011;38948;48.376;-4.312;2022-08-25T12:17:37;1.05;;;0.30;;
53064;SDS011;38948;48.376;-4.312;2022-08-25T12:20:04;2.05;;;0.50;;
53064;SDS011;38948;48.376;-4.312;2022-08-25T12:25:00;2.47;;;0.47;;
53064;SDS011;38948;48.376;-4.312;2022-08-25T12:37:53;2.75;;;0.45;;
53064;SDS011;38948;48.376;-4.312;2022-08-25T12:40:28;3.00;;;0.50;;
53064;SDS011;38948;48.376;-4.312;2022-08-25T12:43:01;0.95;;;0.32;;
53064;SDS011;38948;48.376;-4.312;2022-08-25T12:45:32;1.23;;;0.32;;
53064;SDS011;38948;48.376;-4.312;2022-08-25T12:50:43;2.00;;;0.40;;
53064;SDS011;38948;48.376;-4.312;2022-08-25T12:53:16;2.85;;;0.50;;
53064;SDS011;38948;48.376;-4.312;2022-08-25T12:55:48;0.63;;;0.45;;
53064;SDS011;38948;48.376;-4.312;2022-08-25T12:58:16;2.25;;;0.47;;
53064;SDS011;38948;48.376;-4.312;2022-08-25T13:00:49;2.33;;;0.70;;
53064;SDS011;38948;48.376;-4.312;2022-08-25T13:08:24;2.22;;;0.73;;
53064;SDS011;38948;48.376;-4.312;2022-08-25T13:11:35;0.60;;;0.20;;
53064;SDS011;38948;48.376;-4.312;2022-08-25T13:16:25;3.10;;;0.45;;
53064;SDS011;38948;48.376;-4.312;2022-08-25T13:18:51;1.75;;;0.55;;
53064;SDS011;38948;48.376;-4.312;2022-08-25T13:21:30;1.05;;;0.43;;
53064;SDS011;38948;48.376;-4.312;2022-08-25T13:23:57;2.90;;;0.85;;
53064;SDS011;38948;48.376;-4.312;2022-08-25T13:26:27;1.67;;;0.38;;
53064;SDS011;38948;48.376;-4.312;2022-08-25T13:29:17;1.95;;;0.40;;
53064;SDS011;38948;48.376;-4.312;2022-08-25T13:31:51;3.17;;;0.90;;
53064;SDS011;38948;48.376;-4.312;2022-08-25T13:34:19;0.70;;;0.40;;
53064;SDS011;38948;48.376;-4.312;2022-08-25T13:36:46;1.30;;;0.40;;
53064;SDS011;38948;48.376;-4.312;2022-08-25T13:39:42;2.35;;;0.50;;
53064;SDS011;38948;48.376;-4.312;2022-08-25T13:42:15;1.35;;;0.38;;
53064;SDS011;38948;48.376;-4.312;2022-08-25T13:44:41;1.15;;;0.40;;
53064;SDS011;38948;48.376;-4.312;2022-08-25T13:47:15;2.97;;;0.50;;
53064;SDS011;38948;48.376;-4.312;2022-08-25T13:49:45;1.95;;;0.63;;
53064;SDS011;38948;48.376;-4.312;2022-08-25T13:52:26;3.03;;;0.60;;
53064;SDS011;38948;48.376;-4.312;2022-08-25T13:54:56;1.02;;;0.43;;
53064;SDS011;38948;48.376;-4.312;2022-08-25T13:57:24;2.13;;;0.47;;
53064;SDS011;38948;48.376;-4.312;2022-08-25T13:59:52;2.50;;;0.43;;
53064;SDS011;38948;48.376;-4.312;2022-08-25T14:05:03;2.70;;;0.63;;
53064;SDS011;38948;48.376;-4.312;2022-08-25T14:07:30;1.38;;;0.50;;
53064;SDS011;38948;48.376;-4.312;2022-08-25T14:09:58;1.73;;;0.60;;
53064;SDS011;38948;48.376;-4.312;2022-08-25T14:12:28;4.88;;;0.73;;
53064;SDS011;38948;48.376;-4.312;2022-08-25T14:14:59;2.42;;;0.60;;
53064;SDS011;38948;48.376;-4.312;2022-08-25T14:17:25;0.90;;;0.52;;
53064;SDS011;38948;48.376;-4.312;2022-08-25T14:19:51;4.03;;;0.82;;
53064;SDS011;38948;48.376;-4.312;2022-08-25T14:22:17;0.52;;;0.30;;
53064;SDS011;38948;48.376;-4.312;2022-08-25T14:24:43;1.58;;;0.32;;
53064;SDS011;38948;48.376;-4.312;2022-08-25T14:27:09;3.17;;;0.70;;
53064;SDS011;38948;48.376;-4.312;2022-08-25T14:29:35;1.60;;;0.50;;
53064;SDS011;38948;48.376;-4.312;2022-08-25T14:32:01;2.63;;;0.68;;
53064;SDS011;38948;48.376;-4.312;2022-08-25T14:34:29;1.17;;;0.60;;
53064;SDS011;38948;48.376;-4.312;2022-08-25T14:36:57;2.72;;;0.70;;
53064;SDS011;38948;48.376;-4.312;2022-08-25T14:39:26;1.02;;;0.40;;
53064;SDS011;38948;48.376;-4.312;2022-08-25T14:41:56;1.15;;;0.60;;
53064;SDS011;38948;48.376;-4.312;2022-08-25T14:44:22;3.00;;;0.90;;
53064;SDS011;38948;48.376;-4.312;2022-08-25T14:46:50;2.75;;;0.73;;
53064;SDS011;38948;48.376;-4.312;2022-08-25T14:49:21;1.70;;;0.43;;
53064;SDS011;38948;48.376;-4.312;2022-08-25T14:51:47;1.25;;;0.50;;
53064;SDS011;38948;48.376;-4.312;2022-08-25T14:54:14;0.55;;;0.30;;
53064;SDS011;38948;48.376;-4.312;2022-08-25T14:56:42;4.03;;;0.98;;
53064;SDS011;38948;48.376;-4.312;2022-08-25T14:59:09;3.88;;;0.70;;
53064;SDS011;38948;48.376;-4.312;2022-08-25T15:01:35;3.10;;;0.77;;
53064;SDS011;38948;48.376;-4.312;2022-08-25T15:04:11;2.38;;;0.70;;
53064;SDS011;38948;48.376;-4.312;2022-08-25T15:06:39;3.83;;;0.70;;
53064;SDS011;38948;48.376;-4.312;2022-08-25T15:09:09;1.58;;;0.60;;
53064;SDS011;38948;48.376;-4.312;2022-08-25T15:11:46;2.03;;;0.75;;
53064;SDS011;38948;48.376;-4.312;2022-08-25T15:14:14;1.38;;;0.50;;
53064;SDS011;38948;48.376;-4.312;2022-08-25T15:16:41;0.52;;;0.50;;
53064;SDS011;38948;48.376;-4.312;2022-08-25T15:19:10;1.50;;;0.65;;
53064;SDS011;38948;48.376;-4.312;2022-08-25T15:21:38;0.85;;;0.52;;
53064;SDS011;38948;48.376;-4.312;2022-08-25T15:24:05;1.95;;;0.88;;
53064;SDS011;38948;48.376;-4.312;2022-08-25T15:26:37;1.45;;;0.40;;
53064;SDS011;38948;48.376;-4.312;2022-08-25T15:29:04;0.55;;;0.43;;
53064;SDS011;38948;48.376;-4.312;2022-08-25T15:31:30;3.75;;;0.43;;
53064;SDS011;38948;48.376;-4.312;2022-08-25T15:33:56;4.57;;;0.77;;
53064;SDS011;38948;48.376;-4.312;2022-08-25T15:36:23;1.75;;;0.60;;
53064;SDS011;38948;48.376;-4.312;2022-08-25T15:38:50;4.57;;;0.88;;
53064;SDS011;38948;48.376;-4.312;2022-08-25T15:41:17;3.22;;;0.60;;
53064;SDS011;38948;48.376;-4.312;2022-08-25T15:43:43;2.75;;;0.80;;
53064;SDS011;38948;48.376;-4.312;2022-08-25T15:46:09;2.03;;;0.50;;
53064;SDS011;38948;48.376;-4.312;2022-08-25T15:48:38;1.77;;;0.47;;
53064;SDS011;38948;48.376;-4.312;2022-08-25T15:51:04;3.15;;;0.70;;
53064;SDS011;38948;48.376;-4.312;2022-08-25T15:53:33;4.90;;;0.85;;
53064;SDS011;38948;48.376;-4.312;2022-08-25T15:55:59;1.95;;;0.50;;
53064;SDS011;38948;48.376;-4.312;2022-08-25T15:58:25;1.75;;;0.55;;
53064;SDS011;38948;48.376;-4.312;2022-08-25T16:00:51;2.70;;;0.70;;
53064;SDS011;38948;48.376;-4.312;2022-08-25T16:03:17;1.70;;;0.52;;
53064;SDS011;38948;48.376;-4.312;2022-08-25T16:05:43;2.83;;;0.60;;
53064;SDS011;38948;48.376;-4.312;2022-08-25T16:08:10;1.60;;;0.60;;
53064;SDS011;38948;48.376;-4.312;2022-08-25T16:10:37;3.03;;;0.80;;
53064;SDS011;38948;48.376;-4.312;2022-08-25T16:13:03;6.07;;;0.77;;
53064;SDS011;38948;48.376;-4.312;2022-08-25T16:15:30;4.50;;;0.75;;
53064;SDS011;38948;48.376;-4.312;2022-08-25T16:17:59;2.05;;;0.70;;
53064;SDS011;38948;48.376;-4.312;2022-08-25T16:20:29;2.08;;;0.70;;
53064;SDS011;38948;48.376;-4.312;2022-08-25T16:22:55;1.20;;;0.40;;
53064;SDS011;38948;48.376;-4.312;2022-08-25T16:25:24;1.13;;;0.60;;
53064;SDS011;38948;48.376;-4.312;2022-08-25T16:27:51;1.27;;;0.45;;
53064;SDS011;38948;48.376;-4.312;2022-08-25T16:30:17;2.53;;;1.13;;
53064;SDS011;38948;48.376;-4.312;2022-08-25T16:32:44;2.40;;;0.70;;
53064;SDS011;38948;48.376;-4.312;2022-08-25T16:35:10;0.65;;;0.45;;